sensor_id;sensor_type;location;lat;lon;timestamp;temperature;humidity
16384;DHT22;8301;51.440;6.610;2022-09-17T00:02:26;10.60;99.90
16384;DHT22;8301;51.440;6.610;2022-09-17T00:04:54;10.60;99.90
16384;DHT22;8301;51.440;6.610;2022-09-17T00:07:25;10.60;99.90
16384;DHT22;8301;51.440;6.610;2022-09-17T00:09:53;10.60;99.90
16384;DHT22;8301;51.440;6.610;2022-09-17T00:12:19;10.70;99.90
16384;DHT22;8301;51.440;6.610;2022-09-17T00:14:46;10.70;99.90
16384;DHT22;8301;51.440;6.610;2022-09-17T00:17:13;10.70;99.90
16384;DHT22;8301;51.440;6.610;2022-09-17T00:22:10;10.70;99.90
16384;DHT22;8301;51.440;6.610;2022-09-17T00:24:37;10.70;99.90
16384;DHT22;8301;51.440;6.610;2022-09-17T00:27:06;10.70;99.90
16384;DHT22;8301;51.440;6.610;2022-09-17T00:29:33;10.70;99.90
16384;DHT22;8301;51.440;6.610;2022-09-17T00:32:00;10.70;99.90
16384;DHT22;8301;51.440;6.610;2022-09-17T00:34:27;10.60;99.90
16384;DHT22;8301;51.440;6.610;2022-09-17T00:36:54;10.60;99.90
16384;DHT22;8301;51.440;6.610;2022-09-17T00:39:23;10.50;99.90
16384;DHT22;8301;51.440;6.610;2022-09-17T00:41:50;10.50;99.90
16384;DHT22;8301;51.440;6.610;2022-09-17T00:47:03;10.40;99.90
16384;DHT22;8301;51.440;6.610;2022-09-17T00:49:31;10.40;99.90
16384;DHT22;8301;51.440;6.610;2022-09-17T00:52:07;10.40;99.90
16384;DHT22;8301;51.440;6.610;2022-09-17T00:54:35;10.40;99.90
16384;DHT22;8301;51.440;6.610;2022-09-17T00:57:04;10.40;99.90
16384;DHT22;8301;51.440;6.610;2022-09-17T00:59:31;10.40;99.90
16384;DHT22;8301;51.440;6.610;2022-09-17T01:01:58;10.40;99.90
16384;DHT22;8301;51.440;6.610;2022-09-17T01:04:25;10.40;99.90
16384;DHT22;8301;51.440;6.610;2022-09-17T01:07:08;10.40;99.90
16384;DHT22;8301;51.440;6.610;2022-09-17T01:14:52;10.20;99.90
16384;DHT22;8301;51.440;6.610;2022-09-17T01:20:06;10.10;99.90
16384;DHT22;8301;51.440;6.610;2022-09-17T01:25:22;10.10;99.90
16384;DHT22;8301;51.440;6.610;2022-09-17T01:28:04;10.10;99.90
16384;DHT22;8301;51.440;6.610;2022-09-17T01:30:32;10.10;99.90
16384;DHT22;8301;51.440;6.610;2022-09-17T01:32:59;10.20;99.90
16384;DHT22;8301;51.440;6.610;2022-09-17T01:35:38;10.20;99.90
16384;DHT22;8301;51.440;6.610;2022-09-17T01:38:14;10.20;99.90
16384;DHT22;8301;51.440;6.610;2022-09-17T01:43:40;10.30;99.90
16384;DHT22;8301;51.440;6.610;2022-09-17T01:46:13;10.30;99.90
16384;DHT22;8301;51.440;6.610;2022-09-17T01:48:40;10.30;99.90
16384;DHT22;8301;51.440;6.610;2022-09-17T01:51:14;10.30;99.90
16384;DHT22;8301;51.440;6.610;2022-09-17T01:53:42;10.30;99.90
16384;DHT22;8301;51.440;6.610;2022-09-17T01:56:06;10.30;99.90
16384;DHT22;8301;51.440;6.610;2022-09-17T01:58:41;10.30;99.90
16384;DHT22;8301;51.440;6.610;2022-09-17T02:01:15;10.30;99.90
16384;DHT22;8301;51.440;6.610;2022-09-17T02:03:55;10.40;99.90
16384;DHT22;8301;51.440;6.610;2022-09-17T02:06:23;10.30;99.90
16384;DHT22;8301;51.440;6.610;2022-09-17T02:08:51;10.30;99.90
16384;DHT22;8301;51.440;6.610;2022-09-17T02:11:18;10.30;99.90
16384;DHT22;8301;51.440;6.610;2022-09-17T02:13:53;10.30;99.90
16384;DHT22;8301;51.440;6.610;2022-09-17T02:16:26;10.30;99.90
16384;DHT22;8301;51.440;6.610;2022-09-17T02:19:09;10.30;99.90
16384;DHT22;8301;51.440;6.610;2022-09-17T02:21:44;10.30;99.90
16384;DHT22;8301;51.440;6.610;2022-09-17T02:24:19;10.30;99.90
16384;DHT22;8301;51.440;6.610;2022-09-17T02:26:49;10.30;99.90
16384;DHT22;8301;51.440;6.610;2022-09-17T02:29:18;10.30;99.90
16384;DHT22;8301;51.440;6.610;2022-09-17T02:31:43;10.30;99.90
16384;DHT22;8301;51.440;6.610;2022-09-17T02:34:10;10.30;99.90
16384;DHT22;8301;51.440;6.610;2022-09-17T02:36:37;10.30;99.90
16384;DHT22;8301;51.440;6.610;2022-09-17T02:39:08;10.20;99.90
16384;DHT22;8301;51.440;6.610;2022-09-17T02:41:39;10.20;99.90
16384;DHT22;8301;51.440;6.610;2022-09-17T02:46:37;10.10;99.90
16384;DHT22;8301;51.440;6.610;2022-09-17T02:51:42;10.10;99.90
16384;DHT22;8301;51.440;6.610;2022-09-17T02:54:23;10.10;99.90
16384;DHT22;8301;51.440;6.610;2022-09-17T02:59:24;10.10;99.90
16384;DHT22;8301;51.440;6.610;2022-09-17T03:04:37;10.30;99.90
16384;DHT22;8301;51.440;6.610;2022-09-17T03:07:05;10.30;99.90
16384;DHT22;8301;51.440;6.610;2022-09-17T03:09:35;10.30;99.90
16384;DHT22;8301;51.440;6.610;2022-09-17T03:12:03;10.40;99.90
16384;DHT22;8301;51.440;6.610;2022-09-17T03:14:30;10.40;99.90
16384;DHT22;8301;51.440;6.610;2022-09-17T03:16:56;10.40;99.90
16384;DHT22;8301;51.440;6.610;2022-09-17T03:19:29;10.50;99.90
16384;DHT22;8301;51.440;6.610;2022-09-17T03:21:56;10.50;99.90
16384;DHT22;8301;51.440;6.610;2022-09-17T03:24:24;10.50;99.90
16384;DHT22;8301;51.440;6.610;2022-09-17T03:26:52;10.50;99.90
16384;DHT22;8301;51.440;6.610;2022-09-17T03:29:21;10.50;99.90
16384;DHT22;8301;51.440;6.610;2022-09-17T03:31:47;10.50;99.90
16384;DHT22;8301;51.440;6.610;2022-09-17T03:34:14;10.40;99.90
16384;DHT22;8301;51.440;6.610;2022-09-17T03:36:52;10.50;99.90
16384;DHT22;8301;51.440;6.610;2022-09-17T03:39:19;10.40;99.90
16384;DHT22;8301;51.440;6.610;2022-09-17T03:41:52;10.40;99.90
16384;DHT22;8301;51.440;6.610;2022-09-17T03:44:19;10.40;99.90
16384;DHT22;8301;51.440;6.610;2022-09-17T03:46:50;10.50;99.90
16384;DHT22;8301;51.440;6.610;2022-09-17T03:49:17;10.40;99.90
16384;DHT22;8301;51.440;6.610;2022-09-17T03:51:44;10.50;99.90
16384;DHT22;8301;51.440;6.610;2022-09-17T03:54:15;10.40;99.90
16384;DHT22;8301;51.440;6.610;2022-09-17T03:56:42;10.40;99.90
16384;DHT22;8301;51.440;6.610;2022-09-17T03:59:09;10.30;99.90
16384;DHT22;8301;51.440;6.610;2022-09-17T04:01:36;10.30;99.90
16384;DHT22;8301;51.440;6.610;2022-09-17T04:04:03;10.30;99.90
16384;DHT22;8301;51.440;6.610;2022-09-17T04:06:29;10.30;99.90
16384;DHT22;8301;51.440;6.610;2022-09-17T04:08:56;10.40;99.90
16384;DHT22;8301;51.440;6.610;2022-09-17T04:11:27;10.40;99.90
16384;DHT22;8301;51.440;6.610;2022-09-17T04:13:54;10.40;99.90
16384;DHT22;8301;51.440;6.610;2022-09-17T04:16:21;10.30;99.90
16384;DHT22;8301;51.440;6.610;2022-09-17T04:18:48;10.30;99.90
16384;DHT22;8301;51.440;6.610;2022-09-17T04:21:14;10.20;99.90
16384;DHT22;8301;51.440;6.610;2022-09-17T04:23:41;10.20;99.90
16384;DHT22;8301;51.440;6.610;2022-09-17T04:26:08;10.10;99.90
16384;DHT22;8301;51.440;6.610;2022-09-17T04:28:35;10.10;99.90
16384;DHT22;8301;51.440;6.610;2022-09-17T04:31:02;10.00;99.90
16384;DHT22;8301;51.440;6.610;2022-09-17T04:33:29;10.00;99.90
16384;DHT22;8301;51.440;6.610;2022-09-17T04:36:01;10.00;99.90
16384;DHT22;8301;51.440;6.610;2022-09-17T04:38:29;10.00;99.90
16384;DHT22;8301;51.440;6.610;2022-09-17T04:40:58;9.90;99.90
16384;DHT22;8301;51.440;6.610;2022-09-17T04:43:25;9.80;99.90
16384;DHT22;8301;51.440;6.610;2022-09-17T04:46:06;9.70;99.90
16384;DHT22;8301;51.440;6.610;2022-09-17T04:48:34;9.70;99.90
16384;DHT22;8301;51.440;6.610;2022-09-17T04:51:04;9.70;99.90
16384;DHT22;8301;51.440;6.610;2022-09-17T04:53:30;9.60;99.90
16384;DHT22;8301;51.440;6.610;2022-09-17T04:55:57;9.60;99.90
16384;DHT22;8301;51.440;6.610;2022-09-17T04:58:24;9.50;99.90
16384;DHT22;8301;51.440;6.610;2022-09-17T05:00:51;9.50;99.90
16384;DHT22;8301;51.440;6.610;2022-09-17T05:03:18;9.40;99.90
16384;DHT22;8301;51.440;6.610;2022-09-17T05:05:44;9.40;99.90
16384;DHT22;8301;51.440;6.610;2022-09-17T05:08:11;9.40;99.90
16384;DHT22;8301;51.440;6.610;2022-09-17T05:10:38;9.40;99.90
16384;DHT22;8301;51.440;6.610;2022-09-17T05:13:05;9.40;99.90
16384;DHT22;8301;51.440;6.610;2022-09-17T05:15:32;9.40;99.90
16384;DHT22;8301;51.440;6.610;2022-09-17T05:17:58;9.40;99.90
16384;DHT22;8301;51.440;6.610;2022-09-17T05:20:25;9.40;99.90
16384;DHT22;8301;51.440;6.610;2022-09-17T05:22:52;9.40;99.90
16384;DHT22;8301;51.440;6.610;2022-09-17T05:25:19;9.50;99.90
16384;DHT22;8301;51.440;6.610;2022-09-17T05:27:48;9.60;99.90
16384;DHT22;8301;51.440;6.610;2022-09-17T05:30:16;9.60;99.90
16384;DHT22;8301;51.440;6.610;2022-09-17T05:32:43;9.70;99.90
16384;DHT22;8301;51.440;6.610;2022-09-17T05:35:10;9.70;99.90
16384;DHT22;8301;51.440;6.610;2022-09-17T05:37:36;9.70;99.90
16384;DHT22;8301;51.440;6.610;2022-09-17T05:40:04;9.70;99.90
16384;DHT22;8301;51.440;6.610;2022-09-17T05:42:34;9.70;99.90
16384;DHT22;8301;51.440;6.610;2022-09-17T05:45:01;9.60;99.90
16384;DHT22;8301;51.440;6.610;2022-09-17T05:47:34;9.60;99.90
16384;DHT22;8301;51.440;6.610;2022-09-17T05:50:01;9.70;99.90
16384;DHT22;8301;51.440;6.610;2022-09-17T05:52:29;9.70;99.90
16384;DHT22;8301;51.440;6.610;2022-09-17T05:54:56;9.70;99.90
16384;DHT22;8301;51.440;6.610;2022-09-17T05:57:24;9.80;99.90
16384;DHT22;8301;51.440;6.610;2022-09-17T05:59:54;9.80;99.90
16384;DHT22;8301;51.440;6.610;2022-09-17T06:02:22;9.80;99.90
16384;DHT22;8301;51.440;6.610;2022-09-17T06:04:48;9.70;99.90
16384;DHT22;8301;51.440;6.610;2022-09-17T06:07:15;9.70;99.90
16384;DHT22;8301;51.440;6.610;2022-09-17T06:09:43;9.70;99.90
16384;DHT22;8301;51.440;6.610;2022-09-17T06:12:10;9.70;99.90
16384;DHT22;8301;51.440;6.610;2022-09-17T06:14:37;9.60;99.90
16384;DHT22;8301;51.440;6.610;2022-09-17T06:17:03;9.60;99.90
16384;DHT22;8301;51.440;6.610;2022-09-17T06:19:30;9.60;99.90
16384;DHT22;8301;51.440;6.610;2022-09-17T06:21:58;9.60;99.90
16384;DHT22;8301;51.440;6.610;2022-09-17T06:24:25;9.50;99.90
16384;DHT22;8301;51.440;6.610;2022-09-17T06:26:52;9.60;99.90
16384;DHT22;8301;51.440;6.610;2022-09-17T06:29:19;9.60;99.90
16384;DHT22;8301;51.440;6.610;2022-09-17T06:31:47;9.60;99.90
16384;DHT22;8301;51.440;6.610;2022-09-17T06:34:14;9.70;99.90
16384;DHT22;8301;51.440;6.610;2022-09-17T06:36:41;9.70;99.90
16384;DHT22;8301;51.440;6.610;2022-09-17T06:39:09;9.80;99.90
16384;DHT22;8301;51.440;6.610;2022-09-17T06:41:36;9.80;99.90
16384;DHT22;8301;51.440;6.610;2022-09-17T06:44:15;9.90;99.90
16384;DHT22;8301;51.440;6.610;2022-09-17T06:46:42;9.90;99.90
16384;DHT22;8301;51.440;6.610;2022-09-17T06:49:11;10.10;99.90
16384;DHT22;8301;51.440;6.610;2022-09-17T06:51:38;10.10;99.90
16384;DHT22;8301;51.440;6.610;2022-09-17T06:54:23;10.10;99.90
16384;DHT22;8301;51.440;6.610;2022-09-17T06:56:56;10.20;99.90
16384;DHT22;8301;51.440;6.610;2022-09-17T06:59:23;10.30;99.90
16384;DHT22;8301;51.440;6.610;2022-09-17T07:01:51;10.30;99.90
16384;DHT22;8301;51.440;6.610;2022-09-17T07:04:18;10.40;99.90
16384;DHT22;8301;51.440;6.610;2022-09-17T07:06:45;10.50;99.90
16384;DHT22;8301;51.440;6.610;2022-09-17T07:09:12;10.60;99.90
16384;DHT22;8301;51.440;6.610;2022-09-17T07:11:38;10.80;99.90
16384;DHT22;8301;51.440;6.610;2022-09-17T07:14:08;10.90;99.90
16384;DHT22;8301;51.440;6.610;2022-09-17T07:16:35;11.00;99.90
16384;DHT22;8301;51.440;6.610;2022-09-17T07:19:02;11.10;99.90
16384;DHT22;8301;51.440;6.610;2022-09-17T07:21:29;11.20;99.90
16384;DHT22;8301;51.440;6.610;2022-09-17T07:23:56;11.20;99.90
16384;DHT22;8301;51.440;6.610;2022-09-17T07:26:23;11.30;99.90
16384;DHT22;8301;51.440;6.610;2022-09-17T07:28:52;11.30;99.90
16384;DHT22;8301;51.440;6.610;2022-09-17T07:31:20;11.30;99.90
16384;DHT22;8301;51.440;6.610;2022-09-17T07:33:55;11.50;99.90
16384;DHT22;8301;51.440;6.610;2022-09-17T07:36:28;11.50;99.90
16384;DHT22;8301;51.440;6.610;2022-09-17T07:38:55;11.60;99.90
16384;DHT22;8301;51.440;6.610;2022-09-17T07:41:22;11.70;99.90
16384;DHT22;8301;51.440;6.610;2022-09-17T07:43:50;11.80;99.90
16384;DHT22;8301;51.440;6.610;2022-09-17T07:46:18;11.80;99.90
16384;DHT22;8301;51.440;6.610;2022-09-17T07:48:46;11.90;99.90
16384;DHT22;8301;51.440;6.610;2022-09-17T07:51:20;12.00;99.90
16384;DHT22;8301;51.440;6.610;2022-09-17T07:53:51;12.00;99.90
16384;DHT22;8301;51.440;6.610;2022-09-17T07:56:18;12.10;99.90
16384;DHT22;8301;51.440;6.610;2022-09-17T07:58:47;12.20;99.90
16384;DHT22;8301;51.440;6.610;2022-09-17T08:01:17;12.30;99.90
16384;DHT22;8301;51.440;6.610;2022-09-17T08:03:48;12.30;99.90
16384;DHT22;8301;51.440;6.610;2022-09-17T08:06:17;12.40;99.90
16384;DHT22;8301;51.440;6.610;2022-09-17T08:08:45;12.40;99.90
16384;DHT22;8301;51.440;6.610;2022-09-17T08:16:18;12.40;99.90
16384;DHT22;8301;51.440;6.610;2022-09-17T08:18:46;12.50;99.90
16384;DHT22;8301;51.440;6.610;2022-09-17T08:21:15;12.60;99.90
16384;DHT22;8301;51.440;6.610;2022-09-17T08:23:44;12.80;99.90
16384;DHT22;8301;51.440;6.610;2022-09-17T08:26:15;12.80;99.90
16384;DHT22;8301;51.440;6.610;2022-09-17T08:28:46;13.10;99.90
16384;DHT22;8301;51.440;6.610;2022-09-17T08:31:15;13.20;99.90
16384;DHT22;8301;51.440;6.610;2022-09-17T08:33:44;13.20;99.90
16384;DHT22;8301;51.440;6.610;2022-09-17T08:36:13;13.30;99.90
16384;DHT22;8301;51.440;6.610;2022-09-17T08:38:40;13.40;99.90
16384;DHT22;8301;51.440;6.610;2022-09-17T08:46:34;13.80;99.90
16384;DHT22;8301;51.440;6.610;2022-09-17T08:49:04;13.90;99.90
16384;DHT22;8301;51.440;6.610;2022-09-17T08:56:44;14.50;99.90
16384;DHT22;8301;51.440;6.610;2022-09-17T08:59:27;14.60;99.90
16384;DHT22;8301;51.440;6.610;2022-09-17T09:04:30;14.60;99.90
16384;DHT22;8301;51.440;6.610;2022-09-17T09:09:55;14.80;99.90
16384;DHT22;8301;51.440;6.610;2022-09-17T09:12:22;15.10;99.90
16384;DHT22;8301;51.440;6.610;2022-09-17T09:14:53;15.20;99.90
16384;DHT22;8301;51.440;6.610;2022-09-17T09:17:25;15.20;99.90
16384;DHT22;8301;51.440;6.610;2022-09-17T09:19:53;15.40;99.90
16384;DHT22;8301;51.440;6.610;2022-09-17T09:27:29;15.40;99.90
16384;DHT22;8301;51.440;6.610;2022-09-17T09:35:32;15.10;99.90
16384;DHT22;8301;51.440;6.610;2022-09-17T09:40:56;14.80;99.90
16384;DHT22;8301;51.440;6.610;2022-09-17T09:51:30;15.10;99.90
16384;DHT22;8301;51.440;6.610;2022-09-17T09:59:13;14.90;99.90
16384;DHT22;8301;51.440;6.610;2022-09-17T10:01:46;15.50;99.90
16384;DHT22;8301;51.440;6.610;2022-09-17T10:04:23;15.90;99.90
16384;DHT22;8301;51.440;6.610;2022-09-17T10:09:23;16.40;99.90
16384;DHT22;8301;51.440;6.610;2022-09-17T10:12:01;16.40;99.90
16384;DHT22;8301;51.440;6.610;2022-09-17T10:14:23;15.60;99.90
16384;DHT22;8301;51.440;6.610;2022-09-17T10:19:37;14.80;99.90
16384;DHT22;8301;51.440;6.610;2022-09-17T10:22:47;14.70;99.90
16384;DHT22;8301;51.440;6.610;2022-09-17T10:24:37;14.60;99.90
16384;DHT22;8301;51.440;6.610;2022-09-17T10:29:34;15.00;99.90
16384;DHT22;8301;51.440;6.610;2022-09-17T10:32:01;15.20;99.90
16384;DHT22;8301;51.440;6.610;2022-09-17T10:34:29;15.10;99.90
16384;DHT22;8301;51.440;6.610;2022-09-17T10:36:57;14.80;99.90
16384;DHT22;8301;51.440;6.610;2022-09-17T10:39:31;14.50;99.90
16384;DHT22;8301;51.440;6.610;2022-09-17T10:42:00;14.40;99.90
16384;DHT22;8301;51.440;6.610;2022-09-17T10:44:28;14.80;99.90
16384;DHT22;8301;51.440;6.610;2022-09-17T10:47:15;15.40;99.90
16384;DHT22;8301;51.440;6.610;2022-09-17T10:49:51;15.90;99.90
16384;DHT22;8301;51.440;6.610;2022-09-17T10:52:31;16.40;99.90
16384;DHT22;8301;51.440;6.610;2022-09-17T11:00:21;16.50;99.90
16384;DHT22;8301;51.440;6.610;2022-09-17T11:03:11;16.40;99.90
16384;DHT22;8301;51.440;6.610;2022-09-17T11:05:50;16.40;99.90
16384;DHT22;8301;51.440;6.610;2022-09-17T11:11:02;15.60;99.90
16384;DHT22;8301;51.440;6.610;2022-09-17T11:13:38;15.30;99.90
16384;DHT22;8301;51.440;6.610;2022-09-17T11:16:25;15.60;99.90
16384;DHT22;8301;51.440;6.610;2022-09-17T11:24:28;14.20;99.90
16384;DHT22;8301;51.440;6.610;2022-09-17T11:34:31;12.30;99.90
16384;DHT22;8301;51.440;6.610;2022-09-17T11:41:56;12.60;99.90
16384;DHT22;8301;51.440;6.610;2022-09-17T11:44:26;12.70;99.90
16384;DHT22;8301;51.440;6.610;2022-09-17T11:46:54;12.80;99.90
16384;DHT22;8301;51.440;6.610;2022-09-17T11:49:26;13.10;99.90
16384;DHT22;8301;51.440;6.610;2022-09-17T11:52:02;13.10;99.90
16384;DHT22;8301;51.440;6.610;2022-09-17T12:05:02;11.60;99.90
16384;DHT22;8301;51.440;6.610;2022-09-17T12:10:33;11.20;99.90
16384;DHT22;8301;51.440;6.610;2022-09-17T12:15:37;11.10;99.90
16384;DHT22;8301;51.440;6.610;2022-09-17T12:26:16;12.00;99.90
16384;DHT22;8301;51.440;6.610;2022-09-17T12:29:05;12.30;99.90
16384;DHT22;8301;51.440;6.610;2022-09-17T12:34:12;12.60;99.90
16384;DHT22;8301;51.440;6.610;2022-09-17T12:36:43;12.90;99.90
16384;DHT22;8301;51.440;6.610;2022-09-17T12:39:04;13.10;99.90
16384;DHT22;8301;51.440;6.610;2022-09-17T12:41:32;13.50;99.90
16384;DHT22;8301;51.440;6.610;2022-09-17T12:51:59;14.30;99.90
16384;DHT22;8301;51.440;6.610;2022-09-17T12:54:32;14.40;99.90
16384;DHT22;8301;51.440;6.610;2022-09-17T12:57:08;14.50;99.90
16384;DHT22;8301;51.440;6.610;2022-09-17T12:59:33;14.60;99.90
16384;DHT22;8301;51.440;6.610;2022-09-17T13:02:09;14.70;99.90
16384;DHT22;8301;51.440;6.610;2022-09-17T13:04:47;14.60;99.90
16384;DHT22;8301;51.440;6.610;2022-09-17T13:12:44;15.20;99.90
16384;DHT22;8301;51.440;6.610;2022-09-17T13:17:55;15.60;99.90
16384;DHT22;8301;51.440;6.610;2022-09-17T13:20:26;15.30;99.90
16384;DHT22;8301;51.440;6.610;2022-09-17T13:22:50;15.00;99.90
16384;DHT22;8301;51.440;6.610;2022-09-17T13:27:48;14.70;99.90
16384;DHT22;8301;51.440;6.610;2022-09-17T13:30:17;14.70;99.90
16384;DHT22;8301;51.440;6.610;2022-09-17T13:32:47;14.70;99.90
16384;DHT22;8301;51.440;6.610;2022-09-17T13:40:32;12.80;99.90
16384;DHT22;8301;51.440;6.610;2022-09-17T13:50:53;11.80;99.90
16384;DHT22;8301;51.440;6.610;2022-09-17T14:35:28;13.00;99.90
16384;DHT22;8301;51.440;6.610;2022-09-17T14:38:02;13.20;99.90
16384;DHT22;8301;51.440;6.610;2022-09-17T14:40:30;13.30;99.90
16384;DHT22;8301;51.440;6.610;2022-09-17T14:43:00;13.40;99.90
16384;DHT22;8301;51.440;6.610;2022-09-17T14:45:31;13.50;99.90
16384;DHT22;8301;51.440;6.610;2022-09-17T14:50:48;13.70;99.90
16384;DHT22;8301;51.440;6.610;2022-09-17T14:53:16;13.90;99.90
16384;DHT22;8301;51.440;6.610;2022-09-17T14:55:46;14.00;99.90
16384;DHT22;8301;51.440;6.610;2022-09-17T15:00:51;13.60;99.90
16384;DHT22;8301;51.440;6.610;2022-09-17T15:03:20;13.40;99.90
16384;DHT22;8301;51.440;6.610;2022-09-17T15:05:47;13.40;99.90
16384;DHT22;8301;51.440;6.610;2022-09-17T15:08:17;13.60;99.90
16384;DHT22;8301;51.440;6.610;2022-09-17T15:13:17;13.80;99.90
16384;DHT22;8301;51.440;6.610;2022-09-17T15:18:20;14.10;99.90
16384;DHT22;8301;51.440;6.610;2022-09-17T15:20:48;14.20;99.90
16384;DHT22;8301;51.440;6.610;2022-09-17T15:23:17;14.30;99.90
16384;DHT22;8301;51.440;6.610;2022-09-17T15:25:43;14.30;99.90
16384;DHT22;8301;51.440;6.610;2022-09-17T15:31:10;14.40;99.90
16384;DHT22;8301;51.440;6.610;2022-09-17T15:33:34;14.30;99.90
16384;DHT22;8301;51.440;6.610;2022-09-17T15:36:18;14.10;99.90
16384;DHT22;8301;51.440;6.610;2022-09-17T15:38:53;13.90;99.90
16384;DHT22;8301;51.440;6.610;2022-09-17T15:41:27;13.70;99.90
16384;DHT22;8301;51.440;6.610;2022-09-17T15:46:41;13.50;99.90
16384;DHT22;8301;51.440;6.610;2022-09-17T15:49:52;13.60;99.90
16384;DHT22;8301;51.440;6.610;2022-09-17T15:51:45;13.60;99.90
16384;DHT22;8301;51.440;6.610;2022-09-17T15:54:29;13.60;99.90
16384;DHT22;8301;51.440;6.610;2022-09-17T15:57:02;13.80;99.90
16384;DHT22;8301;51.440;6.610;2022-09-17T15:59:30;13.80;99.90
16384;DHT22;8301;51.440;6.610;2022-09-17T16:02:03;14.00;99.90
16384;DHT22;8301;51.440;6.610;2022-09-17T16:04:31;14.00;99.90
16384;DHT22;8301;51.440;6.610;2022-09-17T16:06:59;14.00;99.90
16384;DHT22;8301;51.440;6.610;2022-09-17T16:09:36;14.00;99.90
16384;DHT22;8301;51.440;6.610;2022-09-17T16:12:03;14.20;99.90
16384;DHT22;8301;51.440;6.610;2022-09-17T16:14:30;14.30;99.90
16384;DHT22;8301;51.440;6.610;2022-09-17T16:16:57;14.20;99.90
16384;DHT22;8301;51.440;6.610;2022-09-17T16:19:24;14.10;99.90
16384;DHT22;8301;51.440;6.610;2022-09-17T16:21:51;14.00;99.90
16384;DHT22;8301;51.440;6.610;2022-09-17T16:24:18;13.90;99.90
16384;DHT22;8301;51.440;6.610;2022-09-17T16:26:46;13.90;99.90
16384;DHT22;8301;51.440;6.610;2022-09-17T16:29:14;13.80;99.90
16384;DHT22;8301;51.440;6.610;2022-09-17T16:31:41;13.80;99.90
16384;DHT22;8301;51.440;6.610;2022-09-17T16:34:09;13.70;99.90
16384;DHT22;8301;51.440;6.610;2022-09-17T16:36:36;13.80;99.90
16384;DHT22;8301;51.440;6.610;2022-09-17T16:39:05;13.80;99.90
16384;DHT22;8301;51.440;6.610;2022-09-17T16:41:37;13.80;99.90
16384;DHT22;8301;51.440;6.610;2022-09-17T16:44:03;13.70;99.90
16384;DHT22;8301;51.440;6.610;2022-09-17T16:46:30;13.70;99.90
16384;DHT22;8301;51.440;6.610;2022-09-17T16:48:59;13.60;99.90
16384;DHT22;8301;51.440;6.610;2022-09-17T16:51:26;13.60;99.90
16384;DHT22;8301;51.440;6.610;2022-09-17T16:56:32;13.40;99.90
16384;DHT22;8301;51.440;6.610;2022-09-17T16:59:10;13.30;99.90
16384;DHT22;8301;51.440;6.610;2022-09-17T17:01:39;13.30;99.90
16384;DHT22;8301;51.440;6.610;2022-09-17T17:04:06;13.30;99.90
16384;DHT22;8301;51.440;6.610;2022-09-17T17:06:32;13.30;99.90
16384;DHT22;8301;51.440;6.610;2022-09-17T17:08:59;13.20;99.90
16384;DHT22;8301;51.440;6.610;2022-09-17T17:11:26;13.10;99.90
16384;DHT22;8301;51.440;6.610;2022-09-17T17:13:54;13.00;99.90
16384;DHT22;8301;51.440;6.610;2022-09-17T17:16:24;12.90;99.90
16384;DHT22;8301;51.440;6.610;2022-09-17T17:18:50;12.80;99.90
16384;DHT22;8301;51.440;6.610;2022-09-17T17:21:19;12.70;99.90
16384;DHT22;8301;51.440;6.610;2022-09-17T17:23:46;12.70;99.90
16384;DHT22;8301;51.440;6.610;2022-09-17T17:26:20;12.60;99.90
16384;DHT22;8301;51.440;6.610;2022-09-17T17:28:47;12.50;99.90
16384;DHT22;8301;51.440;6.610;2022-09-17T17:31:17;12.50;99.90
16384;DHT22;8301;51.440;6.610;2022-09-17T17:33:44;12.40;99.90
16384;DHT22;8301;51.440;6.610;2022-09-17T17:36:11;12.40;99.90
16384;DHT22;8301;51.440;6.610;2022-09-17T17:38:38;12.30;99.90
16384;DHT22;8301;51.440;6.610;2022-09-17T17:41:09;12.40;99.90
16384;DHT22;8301;51.440;6.610;2022-09-17T17:43:36;12.50;99.90
16384;DHT22;8301;51.440;6.610;2022-09-17T17:46:12;12.60;99.90
16384;DHT22;8301;51.440;6.610;2022-09-17T17:48:42;12.50;99.90
16384;DHT22;8301;51.440;6.610;2022-09-17T17:51:09;12.50;99.90
16384;DHT22;8301;51.440;6.610;2022-09-17T17:53:36;12.40;99.90
16384;DHT22;8301;51.440;6.610;2022-09-17T17:56:04;12.40;99.90
16384;DHT22;8301;51.440;6.610;2022-09-17T17:58:32;12.30;99.90
16384;DHT22;8301;51.440;6.610;2022-09-17T18:00:59;12.30;99.90
16384;DHT22;8301;51.440;6.610;2022-09-17T18:03:26;12.30;99.90
16384;DHT22;8301;51.440;6.610;2022-09-17T18:05:53;12.30;99.90
16384;DHT22;8301;51.440;6.610;2022-09-17T18:08:23;12.30;99.90
16384;DHT22;8301;51.440;6.610;2022-09-17T18:10:53;12.30;99.90
16384;DHT22;8301;51.440;6.610;2022-09-17T18:13:21;12.30;99.90
16384;DHT22;8301;51.440;6.610;2022-09-17T18:15:49;12.30;99.90
16384;DHT22;8301;51.440;6.610;2022-09-17T18:18:16;12.30;99.90
16384;DHT22;8301;51.440;6.610;2022-09-17T18:20:43;12.30;99.90
16384;DHT22;8301;51.440;6.610;2022-09-17T18:23:10;12.30;99.90
16384;DHT22;8301;51.440;6.610;2022-09-17T18:25:38;12.30;99.90
16384;DHT22;8301;51.440;6.610;2022-09-17T18:28:05;12.30;99.90
16384;DHT22;8301;51.440;6.610;2022-09-17T18:30:39;12.30;99.90
16384;DHT22;8301;51.440;6.610;2022-09-17T18:33:07;12.30;99.90
16384;DHT22;8301;51.440;6.610;2022-09-17T18:35:35;12.30;99.90
16384;DHT22;8301;51.440;6.610;2022-09-17T18:38:06;12.30;99.90
16384;DHT22;8301;51.440;6.610;2022-09-17T18:40:33;12.30;99.90
16384;DHT22;8301;51.440;6.610;2022-09-17T18:43:00;12.30;99.90
16384;DHT22;8301;51.440;6.610;2022-09-17T18:45:27;12.40;99.90
16384;DHT22;8301;51.440;6.610;2022-09-17T18:47:53;12.40;99.90
16384;DHT22;8301;51.440;6.610;2022-09-17T18:50:20;12.40;99.90
16384;DHT22;8301;51.440;6.610;2022-09-17T18:58:18;12.40;99.90
16384;DHT22;8301;51.440;6.610;2022-09-17T19:00:45;12.40;99.90
16384;DHT22;8301;51.440;6.610;2022-09-17T19:03:12;12.50;99.90
16384;DHT22;8301;51.440;6.610;2022-09-17T19:05:41;12.40;99.90
16384;DHT22;8301;51.440;6.610;2022-09-17T19:08:08;12.40;99.90
16384;DHT22;8301;51.440;6.610;2022-09-17T19:10:35;12.40;99.90
16384;DHT22;8301;51.440;6.610;2022-09-17T19:13:02;12.40;99.90
16384;DHT22;8301;51.440;6.610;2022-09-17T19:15:29;12.40;99.90
16384;DHT22;8301;51.440;6.610;2022-09-17T19:17:57;12.40;99.90
16384;DHT22;8301;51.440;6.610;2022-09-17T19:20:25;12.40;99.90
16384;DHT22;8301;51.440;6.610;2022-09-17T19:22:53;12.40;99.90
16384;DHT22;8301;51.440;6.610;2022-09-17T19:25:20;12.40;99.90
16384;DHT22;8301;51.440;6.610;2022-09-17T19:27:48;12.40;99.90
16384;DHT22;8301;51.440;6.610;2022-09-17T19:30:16;12.40;99.90
16384;DHT22;8301;51.440;6.610;2022-09-17T19:32:45;12.40;99.90
16384;DHT22;8301;51.440;6.610;2022-09-17T19:35:12;12.30;99.90
16384;DHT22;8301;51.440;6.610;2022-09-17T19:37:40;12.30;99.90
16384;DHT22;8301;51.440;6.610;2022-09-17T19:40:07;12.30;99.90
16384;DHT22;8301;51.440;6.610;2022-09-17T19:42:34;12.20;99.90
16384;DHT22;8301;51.440;6.610;2022-09-17T19:45:01;12.20;99.90
16384;DHT22;8301;51.440;6.610;2022-09-17T19:47:28;12.20;99.90
16384;DHT22;8301;51.440;6.610;2022-09-17T19:49:55;12.20;99.90
16384;DHT22;8301;51.440;6.610;2022-09-17T19:52:22;12.20;99.90
16384;DHT22;8301;51.440;6.610;2022-09-17T19:54:49;12.10;99.90
16384;DHT22;8301;51.440;6.610;2022-09-17T19:57:16;12.10;99.90